YQL weather

Lethbridge County Airport
Lethbridge, Alberta, Canada

Public forecast

Using degrees Celsius for public forecast. Weather courtesy of forecast.io.

METAR (pilot weather report)

Retrieved 2019/05/23 08:00 UTC (12 minutes ago):

CYQL 230800Z AUTO 23008KT 9SM CLR 04/03 A3008 RMK SLP200

TAF (pilot weather forecast)

Retrieved 2019/05/23 06:42 UTC (1 hour ago):

TAF CYQL 230540Z 2306/2318 27008KT P6SM SKC BECMG 2316/2318 VRB03KT FEW080 RMK FCST BASED ON AUTO OBS. NXT FCST BY 231200Z